Time;durP1;ratioP1;P1;durP2;ratioP2;P2;SDS_P1;SDS_P2;PMS_P1;PMS_P2;Temp;Humidity;BMP_temperature;BMP_pressure;BME280_temperature;BME280_humidity;BME280_pressure;Samples;Min_cycle;Max_cycle;Signal;HPM_P1;HPM_P2
2022/12/22 03:26:54;;;;;;;;;;;;;;;-0.90;75.50;100143.72;5014809;28;20316;-88
2022/12/22 03:29:19;;;;;;;;;;;;;;;-0.93;75.52;100152.25;5031150;28;19921;-87
2022/12/22 03:31:45;;;;;;;;;;;;;;;-1.02;75.40;100146.72;5030566;28;19913;-88
2022/12/22 03:34:10;;;;;;;;;;;;;;;-0.97;76.22;100144.31;5030595;28;20062;-88
2022/12/22 03:36:35;;;;;;;;;;;;;;;-0.78;75.50;100140.72;5030302;28;19952;-88
2022/12/22 03:39:01;;;;;;;;;;;;;;;-0.73;74.67;100144.34;5011689;28;19917;-89
2022/12/22 03:46:54;;;;;;;;;;;;;;;-0.91;73.75;100136.78;5012734;28;20581;-89
2022/12/22 03:49:21;;;;;;;;;;;;;;;-0.85;73.97;100141.28;5030365;28;19964;-89
2022/12/22 03:51:47;;;;;;;;;;;;;;;-0.86;72.96;100143.00;5030778;28;19917;-89
2022/12/22 03:54:14;;;;;;;;;;;;;;;-1.10;73.59;100145.53;5015667;28;19913;-90
2022/12/22 03:56:40;;;;;;;;;;;;;;;-1.05;73.78;100149.19;5023322;28;19917;-89
2022/12/22 03:59:05;;;;;;;;;;;;;;;-0.99;73.75;100146.84;5031400;28;19920;-89
2022/12/22 04:01:33;;;;;;;;;;;;;;;-1.03;73.39;100144.94;5031164;28;19913;-87
2022/12/22 04:03:58;;;;;;;;;;;;;;;-1.00;73.59;100147.66;5029787;28;20379;-89
2022/12/22 04:06:23;;;;;;;;;;;;;;;-1.06;73.60;100147.44;5031673;28;19924;-89
2022/12/22 04:08:49;;;;;;;;;;;;;;;-1.19;73.83;100143.47;5029767;28;19916;-88
2022/12/22 04:13:58;;;;;;;;;;;;;;;-1.08;73.54;100143.91;5018136;28;19927;-87
2022/12/22 04:16:24;;;;;;;;;;;;;;;-1.06;73.19;100137.06;5011132;28;19922;-90
2022/12/22 04:18:49;;;;;;;;;;;;;;;-1.02;73.29;100141.56;5010119;28;19917;-89
2022/12/22 04:21:15;;;;;;;;;;;;;;;-1.01;72.89;100143.28;5017344;28;20022;-90
2022/12/22 04:23:40;;;;;;;;;;;;;;;-1.00;72.75;100141.63;5028081;28;20380;-90
2022/12/22 04:26:05;;;;;;;;;;;;;;;-1.03;72.62;100142.38;5010639;28;19983;-92
2022/12/22 04:28:30;;;;;;;;;;;;;;;-1.05;72.74;100149.19;5023664;28;20059;-91
2022/12/22 04:30:56;;;;;;;;;;;;;;;-1.07;72.55;100140.47;5022843;28;20375;-90
2022/12/22 04:33:21;;;;;;;;;;;;;;;-1.13;72.21;100142.81;5012080;28;19948;-90
2022/12/22 04:35:46;;;;;;;;;;;;;;;-1.17;72.49;100141.81;5012023;28;19919;-89
2022/12/22 04:38:12;;;;;;;;;;;;;;;-1.18;72.47;100139.19;5008584;28;19920;-90
2022/12/22 04:40:37;;;;;;;;;;;;;;;-1.14;72.60;100146.25;5021397;28;19917;-90
2022/12/22 04:43:02;;;;;;;;;;;;;;;-0.99;72.07;100139.06;5027050;28;19962;-90
2022/12/22 04:45:27;;;;;;;;;;;;;;;-0.98;72.14;100132.19;5028508;28;19913;-92
2022/12/22 04:47:53;;;;;;;;;;;;;;;-0.97;71.73;100139.13;5024284;28;19972;-93
2022/12/22 04:50:18;;;;;;;;;;;;;;;-1.04;71.90;100143.19;5010307;28;19921;-89
2022/12/22 04:52:43;;;;;;;;;;;;;;;-1.02;72.27;100136.38;5027756;28;19951;-90
2022/12/22 04:55:09;;;;;;;;;;;;;;;-1.05;72.04;100141.44;5030152;28;19917;-87
2022/12/22 04:57:34;;;;;;;;;;;;;;;-1.02;71.83;100141.56;5026295;28;19925;-92
2022/12/22 05:00:00;;;;;;;;;;;;;;;-1.18;72.59;100147.81;5017827;28;20009;-88
2022/12/22 05:02:25;;;;;;;;;;;;;;;-1.20;72.40;100136.53;5027775;28;20303;-91
2022/12/22 05:04:50;;;;;;;;;;;;;;;-1.27;72.27;100134.50;5026597;28;19927;-92
2022/12/22 05:07:16;;;;;;;;;;;;;;;-1.33;72.95;100134.25;5027252;28;20455;-91
2022/12/22 05:09:41;;;;;;;;;;;;;;;-1.34;72.89;100137.69;5029476;28;19956;-92
2022/12/22 05:14:50;;;;;;;;;;;;;;;-1.27;72.61;100131.91;5011829;28;19924;-92
2022/12/22 05:17:16;;;;;;;;;;;;;;;-1.39;72.45;100134.03;5023301;28;20000;-90
2022/12/22 05:19:41;;;;;;;;;;;;;;;-1.67;73.54;100136.38;5028860;28;20368;-89
2022/12/22 05:22:06;;;;;;;;;;;;;;;-1.59;73.75;100134.13;5010359;28;19921;-91
2022/12/22 05:24:32;;;;;;;;;;;;;;;-1.40;73.35;100135.72;5009854;28;19967;-90
2022/12/22 05:26:57;;;;;;;;;;;;;;;-1.46;73.64;100132.91;5010004;28;19913;-90
2022/12/22 05:29:22;;;;;;;;;;;;;;;-1.37;73.39;100137.56;5016662;28;19925;-91
2022/12/22 05:31:48;;;;;;;;;;;;;;;-1.39;73.50;100140.09;5025818;28;20387;-91
2022/12/22 05:34:13;;;;;;;;;;;;;;;-1.28;73.05;100140.53;5030693;28;20003;-90
2022/12/22 05:36:38;;;;;;;;;;;;;;;-1.28;72.58;100138.81;5028174;28;19917;-90
2022/12/22 05:39:04;;;;;;;;;;;;;;;-1.53;72.54;100136.97;5027893;28;19925;-93
2022/12/22 05:41:29;;;;;;;;;;;;;;;-1.68;72.29;100144.97;5029106;28;19917;-94
2022/12/22 05:43:54;;;;;;;;;;;;;;;-1.64;72.74;100145.97;5029532;28;20005;-94
2022/12/22 05:46:21;;;;;;;;;;;;;;;-1.59;72.73;100140.97;5029138;28;20805;-94
2022/12/22 05:48:46;;;;;;;;;;;;;;;-1.62;72.43;100146.94;5028709;28;20307;-92
2022/12/22 05:51:11;;;;;;;;;;;;;;;-1.56;72.90;100141.09;5029262;28;19919;-91
2022/12/22 05:53:37;;;;;;;;;;;;;;;-1.45;72.07;100142.44;5025733;28;19928;-91
2022/12/22 05:56:03;;;;;;;;;;;;;;;-1.58;72.71;100142.75;5009383;28;20009;-92
2022/12/22 05:58:28;;;;;;;;;;;;;;;-1.48;72.39;100153.53;5021665;28;20388;-93
2022/12/22 06:00:57;;;;;;;;;;;;;;;-1.46;72.59;100151.00;5013907;28;19967;-92
2022/12/22 06:03:23;;;;;;;;;;;;;;;-1.36;72.95;100149.66;5009326;28;19921;-94
2022/12/22 06:05:49;;;;;;;;;;;;;;;-1.39;72.71;100150.44;5025686;28;20014;-91
2022/12/22 06:08:14;;;;;;;;;;;;;;;-1.42;73.26;100152.00;5017460;28;20384;-90
2022/12/22 06:10:40;;;;;;;;;;;;;;;-1.35;72.95;100157.50;5011671;28;19917;-92
2022/12/22 06:13:05;;;;;;;;;;;;;;;-1.35;73.32;100154.03;5014953;28;19920;-91
2022/12/22 06:15:30;;;;;;;;;;;;;;;-1.27;73.46;100150.03;5021460;28;20379;-91
2022/12/22 06:17:56;;;;;;;;;;;;;;;-1.21;72.79;100155.47;5010862;28;19917;-92
2022/12/22 06:20:21;;;;;;;;;;;;;;;-1.10;72.94;100148.13;5024836;28;20014;-89
2022/12/22 06:22:46;;;;;;;;;;;;;;;-1.30;72.71;100150.81;5024786;28;19960;-94
2022/12/22 06:25:12;;;;;;;;;;;;;;;-1.10;72.80;100156.78;5009840;28;19975;-90
2022/12/22 06:27:39;;;;;;;;;;;;;;;-0.94;72.55;100153.06;5019036;28;19917;-95
2022/12/22 06:30:04;;;;;;;;;;;;;;;-0.89;72.59;100153.25;5023581;28;20011;-90
2022/12/22 06:32:30;;;;;;;;;;;;;;;-0.98;72.94;100156.38;5026300;28;20023;-91
2022/12/22 06:34:55;;;;;;;;;;;;;;;-0.81;72.56;100156.13;5022046;28;19968;-90
2022/12/22 06:37:20;;;;;;;;;;;;;;;-0.72;72.82;100156.50;5007966;28;19948;-91
2022/12/22 06:39:46;;;;;;;;;;;;;;;-0.60;72.90;100150.91;5025851;28;20405;-90
2022/12/22 06:44:54;;;;;;;;;;;;;;;-0.46;73.22;100152.28;5016399;28;19944;-90
2022/12/22 06:47:20;;;;;;;;;;;;;;;-0.33;73.24;100151.00;5035924;28;20618;-90
2022/12/22 06:49:45;;;;;;;;;;;;;;;-0.15;72.98;100160.28;5015241;28;19921;-90
2022/12/22 06:52:11;;;;;;;;;;;;;;;-0.08;72.67;100157.97;5021974;28;19928;-89
2022/12/22 06:54:36;;;;;;;;;;;;;;;0.07;72.56;100155.00;5010762;28;19924;-87
2022/12/22 06:57:01;;;;;;;;;;;;;;;0.21;72.85;100160.66;5019027;28;19976;-88
2022/12/22 06:59:27;;;;;;;;;;;;;;;0.13;73.18;100157.81;5015766;28;20365;-88
2022/12/22 07:01:52;;;;;;;;;;;;;;;0.31;73.58;100164.44;5030389;28;19935;-91
2022/12/22 07:04:20;;;;;;;;;;;;;;;0.46;73.47;100162.38;5029044;28;19964;-95
2022/12/22 07:06:47;;;;;;;;;;;;;;;0.33;73.82;100158.50;5023551;28;20012;-94
2022/12/22 07:09:12;;;;;;;;;;;;;;;0.60;73.87;100162.81;5025734;28;19918;-94
2022/12/22 07:11:38;;;;;;;;;;;;;;;0.39;74.37;100169.91;5021745;28;19921;-95
2022/12/22 07:14:04;;;;;;;;;;;;;;;0.32;75.12;100163.63;5017709;28;19939;-90
2022/12/22 07:16:29;;;;;;;;;;;;;;;0.73;75.17;100165.81;5021164;28;20008;-89
2022/12/22 07:18:54;;;;;;;;;;;;;;;0.95;73.29;100159.63;5013842;28;19920;-93
2022/12/22 07:21:20;;;;;;;;;;;;;;;1.19;73.42;100162.97;5028519;28;20296;-93
2022/12/22 07:23:45;;;;;;;;;;;;;;;1.38;72.61;100163.50;5013420;28;19921;-96
2022/12/22 07:26:11;;;;;;;;;;;;;;;1.01;72.50;100160.66;5013222;28;19917;-93
2022/12/22 07:28:40;;;;;;;;;;;;;;;0.84;73.61;100157.53;5016463;28;19924;-95
2022/12/22 07:31:07;;;;;;;;;;;;;;;1.22;72.77;100160.47;5014093;28;19921;-90
2022/12/22 07:33:36;;;;;;;;;;;;;;;1.20;73.45;100162.09;5029469;28;19916;-94
2022/12/22 07:36:05;;;;;;;;;;;;;;;1.34;74.09;100157.31;5022487;28;20004;-96
2022/12/22 07:38:32;;;;;;;;;;;;;;;1.55;72.15;100156.22;5013873;28;20027;-93
2022/12/22 07:40:58;;;;;;;;;;;;;;;1.48;71.63;100155.13;5012272;28;19928;-92
2022/12/22 07:43:23;;;;;;;;;;;;;;;1.56;71.81;100163.16;5015498;28;19917;-93
2022/12/22 07:45:49;;;;;;;;;;;;;;;1.55;71.94;100156.22;5020575;28;19944;-96
2022/12/22 07:51:08;;;;;;;;;;;;;;;1.81;70.87;100143.94;5048962;23;19926;-94
2022/12/22 07:53:49;;;;;;;;;;;;;;;2.17;70.43;100148.34;5010304;28;20016;-95
2022/12/22 07:56:18;;;;;;;;;;;;;;;2.41;69.26;100153.31;4995441;28;19914;-96
2022/12/22 07:58:43;;;;;;;;;;;;;;;2.64;69.17;100153.91;4975808;28;19960;-93
2022/12/22 08:01:09;;;;;;;;;;;;;;;2.51;69.31;100163.09;4991193;28;20385;-93
2022/12/22 08:03:35;;;;;;;;;;;;;;;2.85;68.88;100160.47;4991244;28;19914;-92
2022/12/22 08:06:02;;;;;;;;;;;;;;;2.79;67.64;100157.72;4990036;28;19945;-91
2022/12/22 08:08:28;;;;;;;;;;;;;;;3.00;67.00;100160.81;4985758;28;19989;-93
2022/12/22 08:10:53;;;;;;;;;;;;;;;3.01;67.14;100165.19;4988844;28;19956;-93
2022/12/22 08:13:19;;;;;;;;;;;;;;;3.20;67.63;100155.19;4990301;28;19971;-91
2022/12/22 08:15:44;;;;;;;;;;;;;;;3.26;67.10;100155.31;4991702;28;20368;-92
2022/12/22 08:18:10;;;;;;;;;;;;;;;3.45;67.54;100150.50;4991457;28;20372;-92
2022/12/22 08:20:37;;;;;;;;;;;;;;;3.50;66.70;100149.72;4990938;28;19957;-93
2022/12/22 08:23:02;;;;;;;;;;;;;;;3.72;65.68;100137.13;4983738;28;19979;-93
2022/12/22 08:25:29;;;;;;;;;;;;;;;4.00;64.69;100142.88;4987132;28;19918;-92
2022/12/22 08:27:55;;;;;;;;;;;;;;;3.91;64.52;100146.22;4990943;28;19924;-95
2022/12/22 08:30:20;;;;;;;;;;;;;;;4.01;65.12;100144.66;4992056;28;19918;-91
2022/12/22 08:32:48;;;;;;;;;;;;;;;3.78;65.84;100136.38;4982511;28;19925;-93
2022/12/22 08:35:14;;;;;;;;;;;;;;;3.98;65.61;100139.38;4992265;28;19913;-94
2022/12/22 08:37:41;;;;;;;;;;;;;;;4.22;65.17;100145.03;4990334;28;19931;-95
2022/12/22 08:40:15;;;;;;;;;;;;;;;3.98;65.29;100131.53;5000880;28;19968;-89
2022/12/22 08:42:40;;;;;;;;;;;;;;;4.01;65.98;100132.47;4990998;28;19913;-93
2022/12/22 08:45:08;;;;;;;;;;;;;;;4.19;65.24;100125.84;4994195;28;19928;-92
2022/12/22 08:47:33;;;;;;;;;;;;;;;4.29;64.60;100123.41;4991562;28;19922;-96
2022/12/22 08:49:58;;;;;;;;;;;;;;;4.01;66.23;100115.94;4989415;28;19992;-95
2022/12/22 08:52:24;;;;;;;;;;;;;;;4.03;66.30;100111.59;4988953;28;19921;-95
2022/12/22 08:54:50;;;;;;;;;;;;;;;3.96;67.06;100117.59;4992049;28;19936;-96
2022/12/22 08:57:15;;;;;;;;;;;;;;;4.22;66.49;100108.47;4989089;28;20424;-96
2022/12/22 08:59:41;;;;;;;;;;;;;;;4.35;65.58;100112.16;4992356;28;19918;-94
2022/12/22 09:02:07;;;;;;;;;;;;;;;4.16;66.01;100103.16;4989712;28;19972;-93
2022/12/22 09:04:33;;;;;;;;;;;;;;;4.27;66.24;100103.34;4988814;28;20456;-95
2022/12/22 09:06:58;;;;;;;;;;;;;;;4.19;66.95;100097.09;4989014;28;19976;-96
2022/12/22 09:09:24;;;;;;;;;;;;;;;4.26;67.45;100089.41;4988956;28;20410;-95
2022/12/22 09:11:49;;;;;;;;;;;;;;;4.01;67.40;100089.81;4988445;28;19917;-94
2022/12/22 09:14:18;;;;;;;;;;;;;;;4.16;67.78;100081.38;4988658;28;19976;-93
2022/12/22 09:16:43;;;;;;;;;;;;;;;4.38;67.10;100083.47;4988336;28;19968;-94
2022/12/22 09:19:08;;;;;;;;;;;;;;;4.41;66.61;100087.88;4988633;28;19945;-94
2022/12/22 09:21:35;;;;;;;;;;;;;;;4.56;65.88;100080.28;4987652;28;19925;-93
2022/12/22 09:24:03;;;;;;;;;;;;;;;4.80;65.73;100071.94;4988577;28;19914;-93
2022/12/22 09:26:28;;;;;;;;;;;;;;;4.48;66.33;100076.69;4988487;28;19925;-92
2022/12/22 09:28:54;;;;;;;;;;;;;;;4.60;66.07;100063.81;4988497;28;19918;-92
2022/12/22 09:31:20;;;;;;;;;;;;;;;4.78;66.11;100059.72;4990316;28;20385;-94
2022/12/22 09:33:46;;;;;;;;;;;;;;;4.75;65.43;100068.38;4988224;28;19918;-95
2022/12/22 09:36:12;;;;;;;;;;;;;;;4.85;64.82;100069.41;4988414;28;20270;-96
2022/12/22 09:38:38;;;;;;;;;;;;;;;4.73;64.73;100061.38;4988463;28;19961;-93
2022/12/22 09:41:27;;;;;;;;;;;;;;;4.34;65.57;100060.81;4988456;28;19913;-95
2022/12/22 09:43:55;;;;;;;;;;;;;;;4.67;65.55;100062.16;4983202;28;20388;-94
2022/12/22 09:46:22;;;;;;;;;;;;;;;4.68;64.33;100063.03;4988181;28;20404;-93
2022/12/22 09:48:48;;;;;;;;;;;;;;;4.82;63.31;100054.53;4988438;28;19941;-94
2022/12/22 09:51:14;;;;;;;;;;;;;;;4.93;62.38;100052.09;4989237;28;19922;-93
2022/12/22 09:53:41;;;;;;;;;;;;;;;5.15;61.56;100037.53;4987902;28;19917;-92
2022/12/22 09:56:10;;;;;;;;;;;;;;;5.05;61.24;100038.31;4987766;28;20410;-93
2022/12/22 09:58:35;;;;;;;;;;;;;;;5.29;61.57;100035.09;4989435;28;19921;-93
2022/12/22 10:01:01;;;;;;;;;;;;;;;5.42;61.52;100040.47;4986447;28;19980;-93
2022/12/22 10:03:29;;;;;;;;;;;;;;;5.43;60.30;100037.00;4985062;28;20029;-93
2022/12/22 10:06:21;;;;;;;;;;;;;;;5.37;60.27;100028.19;4968962;28;20400;-92
2022/12/22 10:08:47;;;;;;;;;;;;;;;5.43;59.30;100026.53;4965282;28;20040;-93
2022/12/22 10:11:16;;;;;;;;;;;;;;;5.40;59.29;100027.38;4978820;28;19921;-91
2022/12/22 10:13:44;;;;;;;;;;;;;;;5.32;59.19;100014.19;4984618;28;19921;-95
2022/12/22 10:16:21;;;;;;;;;;;;;;;5.27;59.56;100013.28;4986540;28;19922;-93
2022/12/22 10:19:06;;;;;;;;;;;;;;;5.43;58.25;100009.09;4977727;28;19925;-93
2022/12/22 10:21:32;;;;;;;;;;;;;;;5.51;58.17;100012.66;4996799;28;19928;-92
2022/12/22 10:23:58;;;;;;;;;;;;;;;5.80;57.67;100001.59;4977447;28;20000;-93
2022/12/22 10:26:27;;;;;;;;;;;;;;;5.89;57.33;99996.44;4983795;28;20662;-91
2022/12/22 10:29:06;;;;;;;;;;;;;;;5.82;58.46;99994.63;4998457;28;19928;-94
2022/12/22 10:31:35;;;;;;;;;;;;;;;5.79;59.30;99988.50;4963776;28;19936;-93
2022/12/22 10:34:11;;;;;;;;;;;;;;;5.77;58.65;99990.25;4985500;28;19925;-93
2022/12/22 10:36:40;;;;;;;;;;;;;;;5.84;58.05;99990.31;5006139;28;19925;-96
2022/12/22 10:39:09;;;;;;;;;;;;;;;5.91;57.63;99986.84;5014604;28;20270;-90
2022/12/22 10:41:36;;;;;;;;;;;;;;;6.17;56.33;99982.75;4983839;28;19909;-92
2022/12/22 10:44:07;;;;;;;;;;;;;;;6.19;56.48;99974.00;5005477;28;19949;-93
2022/12/22 10:46:35;;;;;;;;;;;;;;;6.34;56.38;99973.25;4989427;28;19980;-94
2022/12/22 10:49:10;;;;;;;;;;;;;;;6.39;56.87;99966.28;4993024;28;20006;-91
2022/12/22 10:51:38;;;;;;;;;;;;;;;6.47;56.27;99963.72;4990269;28;20774;-96
2022/12/22 10:54:03;;;;;;;;;;;;;;;6.51;54.38;99962.88;4991154;28;20016;-90
2022/12/22 10:56:33;;;;;;;;;;;;;;;6.57;53.92;99962.06;4984748;28;20037;-93
2022/12/22 10:59:01;;;;;;;;;;;;;;;6.55;54.40;99962.03;4981877;28;19922;-95
2022/12/22 11:01:29;;;;;;;;;;;;;;;6.75;54.07;99951.66;4989606;28;19917;-94
2022/12/22 11:03:55;;;;;;;;;;;;;;;6.74;54.30;99942.03;4985511;28;19918;-95
2022/12/22 11:06:20;;;;;;;;;;;;;;;6.50;55.61;99937.53;4984315;28;19929;-92
2022/12/22 11:08:46;;;;;;;;;;;;;;;6.78;55.61;99935.94;4980176;28;20407;-92
2022/12/22 11:11:30;;;;;;;;;;;;;;;6.76;57.13;99937.66;4981080;28;19918;-92
2022/12/22 11:14:05;;;;;;;;;;;;;;;6.70;57.29;99928.91;4997554;28;19918;-91
2022/12/22 11:16:50;;;;;;;;;;;;;;;6.94;55.87;99930.75;4986688;28;19914;-93
2022/12/22 11:19:34;;;;;;;;;;;;;;;6.81;55.89;99924.56;4988716;28;19918;-94
2022/12/22 11:22:23;;;;;;;;;;;;;;;6.94;55.64;99915.88;4987806;28;19918;-92
2022/12/22 11:24:57;;;;;;;;;;;;;;;6.86;56.37;99917.63;4981172;28;19920;-92
2022/12/22 11:27:28;;;;;;;;;;;;;;;6.85;55.95;99909.75;4983388;28;19924;-91
2022/12/22 11:30:11;;;;;;;;;;;;;;;6.76;56.95;99907.94;4989673;28;19914;-92
2022/12/22 11:32:56;;;;;;;;;;;;;;;6.79;56.27;99897.47;4989565;28;19917;-92
2022/12/22 11:35:24;;;;;;;;;;;;;;;6.93;56.58;99894.91;4986767;28;19922;-91
2022/12/22 11:38:02;;;;;;;;;;;;;;;7.07;55.42;99894.94;4990463;28;19921;-92
2022/12/22 11:40:27;;;;;;;;;;;;;;;6.93;55.83;99894.91;4987027;28;19922;-91
2022/12/22 11:43:05;;;;;;;;;;;;;;;7.02;56.16;99894.94;4989382;28;20471;-96
2022/12/22 11:45:30;;;;;;;;;;;;;;;6.95;55.38;99888.78;4989769;28;19922;-95
2022/12/22 11:48:14;;;;;;;;;;;;;;;6.99;55.61;99894.91;4987775;28;19918;-95
2022/12/22 11:50:44;;;;;;;;;;;;;;;7.08;55.39;99889.69;4991513;28;19918;-94
2022/12/22 11:53:33;;;;;;;;;;;;;;;7.01;54.72;99890.53;5009490;28;19964;-92
2022/12/22 11:56:08;;;;;;;;;;;;;;;7.23;55.14;99890.59;4999814;28;19929;-93
2022/12/22 11:58:58;;;;;;;;;;;;;;;7.17;53.99;99888.84;4989959;28;19913;-94
2022/12/22 12:01:39;;;;;;;;;;;;;;;7.32;52.77;99893.22;4989665;28;19945;-96
2022/12/22 12:04:25;;;;;;;;;;;;;;;7.44;54.29;99885.38;4979949;28;19922;-92
2022/12/22 12:07:09;;;;;;;;;;;;;;;7.49;55.30;99883.63;4992221;28;20324;-95
2022/12/22 12:10:02;;;;;;;;;;;;;;;7.69;55.59;99878.38;4983961;28;19921;-87
2022/12/22 12:12:31;;;;;;;;;;;;;;;7.65;54.58;99876.63;4998063;28;19924;-89
2022/12/22 12:14:59;;;;;;;;;;;;;;;7.70;54.56;99869.63;4988326;28;19936;-89
2022/12/22 12:17:30;;;;;;;;;;;;;;;7.65;54.75;99868.75;4987473;28;19913;-90
2022/12/22 12:19:55;;;;;;;;;;;;;;;7.59;54.40;99874.00;5005905;28;19926;-94
2022/12/22 12:22:39;;;;;;;;;;;;;;;7.50;54.90;99864.38;5005062;28;19921;-95
2022/12/22 12:25:10;;;;;;;;;;;;;;;7.20;55.45;99867.88;4992825;28;19917;-94
2022/12/22 12:27:47;;;;;;;;;;;;;;;7.48;54.85;99863.50;4993228;28;19921;-93
2022/12/22 12:30:15;;;;;;;;;;;;;;;7.52;55.45;99865.25;4984361;28;20440;-93
2022/12/22 12:32:46;;;;;;;;;;;;;;;7.54;56.05;99860.00;4987560;28;20036;-96
2022/12/22 12:35:27;;;;;;;;;;;;;;;7.77;54.77;99853.84;4989954;28;19921;-91
2022/12/22 12:38:09;;;;;;;;;;;;;;;7.88;54.44;99860.00;4992776;28;19951;-94
2022/12/22 12:40:43;;;;;;;;;;;;;;;7.68;55.01;99865.25;4993298;28;19956;-94
2022/12/22 12:43:12;;;;;;;;;;;;;;;7.73;54.26;99858.25;4985384;28;20418;-95
2022/12/22 12:45:45;;;;;;;;;;;;;;;7.82;55.03;99855.59;5002693;28;19980;-95
2022/12/22 12:48:20;;;;;;;;;;;;;;;8.04;54.78;99859.06;4991747;28;19918;-96
2022/12/22 12:50:46;;;;;;;;;;;;;;;7.95;55.84;99861.72;4980028;28;19929;-94
2022/12/22 12:53:11;;;;;;;;;;;;;;;7.85;55.92;99858.22;4977878;28;19941;-92
2022/12/22 12:55:39;;;;;;;;;;;;;;;7.88;56.05;99860.00;4975339;28;20463;-90
2022/12/22 12:58:09;;;;;;;;;;;;;;;7.89;56.03;99859.09;4996235;28;19921;-94
2022/12/22 13:00:34;;;;;;;;;;;;;;;8.01;55.72;99858.22;4984775;28;19918;-91
2022/12/22 13:03:33;;;;;;;;;;;;;;;8.00;56.71;99857.34;4978191;28;19940;-94
2022/12/22 13:06:00;;;;;;;;;;;;;;;7.82;57.31;99858.25;4986671;28;19921;-92
2022/12/22 13:08:26;;;;;;;;;;;;;;;7.85;57.02;99854.75;4983407;28;19917;-91
2022/12/22 13:10:54;;;;;;;;;;;;;;;7.83;57.45;99859.09;4983776;28;19925;-94
2022/12/22 13:13:26;;;;;;;;;;;;;;;7.77;57.27;99853.84;4983064;28;19980;-91
2022/12/22 13:16:06;;;;;;;;;;;;;;;7.86;56.33;99854.75;4986848;28;19940;-90
2022/12/22 13:18:37;;;;;;;;;;;;;;;7.60;55.11;99857.38;4984899;28;19918;-89
2022/12/22 13:21:03;;;;;;;;;;;;;;;7.72;55.46;99859.13;4987706;28;20399;-92
2022/12/22 13:23:36;;;;;;;;;;;;;;;7.67;54.41;99856.50;4985598;28;19922;-91
2022/12/22 13:26:12;;;;;;;;;;;;;;;7.83;54.01;99860.00;5124918;27;19977;-90
2022/12/22 13:28:39;;;;;;;;;;;;;;;7.96;53.31;99857.34;5117250;28;20018;-91
2022/12/22 13:31:23;;;;;;;;;;;;;;;7.98;54.07;99856.44;5106369;28;19927;-88
2022/12/22 13:33:51;;;;;;;;;;;;;;;7.83;50.79;99862.63;5103428;28;20398;-91
2022/12/22 13:36:21;;;;;;;;;;;;;;;7.78;51.12;99855.63;5105474;28;19927;-92
2022/12/22 13:39:02;;;;;;;;;;;;;;;7.70;51.83;99861.75;5108020;28;19967;-94
2022/12/22 13:41:28;;;;;;;;;;;;;;;7.95;50.23;99860.84;5087613;28;20015;-90
2022/12/22 13:43:55;;;;;;;;;;;;;;;7.89;50.75;99861.72;5102586;28;19995;-88
2022/12/22 13:46:21;;;;;;;;;;;;;;;8.01;51.56;99855.59;5104742;28;19999;-91
2022/12/22 13:48:48;;;;;;;;;;;;;;;7.90;53.14;99852.97;5101143;28;20007;-94
2022/12/22 13:51:17;;;;;;;;;;;;;;;7.94;53.08;99849.47;5085434;28;19963;-91
2022/12/22 13:53:45;;;;;;;;;;;;;;;8.05;53.30;99852.09;5086117;28;20404;-94
2022/12/22 13:56:18;;;;;;;;;;;;;;;7.96;53.65;99855.59;5083170;28;20333;-93
2022/12/22 13:58:45;;;;;;;;;;;;;;;8.12;53.19;99851.16;5086652;28;20069;-91
2022/12/22 14:01:10;;;;;;;;;;;;;;;8.11;53.16;99846.81;5088572;28;19979;-92
2022/12/22 14:03:44;;;;;;;;;;;;;;;8.22;54.12;99854.66;5101937;28;20040;-92
2022/12/22 14:06:28;;;;;;;;;;;;;;;8.26;54.82;99851.13;5087902;28;19976;-95
2022/12/22 14:09:07;;;;;;;;;;;;;;;8.25;55.40;99858.16;5107997;28;19920;-93
2022/12/22 14:11:33;;;;;;;;;;;;;;;8.07;55.64;99845.91;5090246;28;19960;-94
2022/12/22 14:13:58;;;;;;;;;;;;;;;8.10;56.06;99849.44;5091855;28;19951;-92
2022/12/22 14:16:25;;;;;;;;;;;;;;;8.04;55.97;99840.69;5095880;28;19923;-92
2022/12/22 14:18:52;;;;;;;;;;;;;;;7.96;56.45;99844.22;5088529;28;19928;-95
2022/12/22 14:21:18;;;;;;;;;;;;;;;7.96;56.42;99842.44;5089410;28;19927;-95
2022/12/22 14:23:44;;;;;;;;;;;;;;;7.92;55.50;99839.84;5087283;28;19920;-95
2022/12/22 14:29:11;;;;;;;;;;;;;;;7.70;56.24;99838.09;5062331;28;20001;-95
2022/12/22 14:32:02;;;;;;;;;;;;;;;7.60;56.29;99831.13;5138090;22;19925;-96
2022/12/22 14:34:29;;;;;;;;;;;;;;;7.40;57.72;99849.50;5066284;28;19939;-94
2022/12/22 14:36:55;;;;;;;;;;;;;;;7.45;57.30;99844.25;5052528;28;20391;-94
2022/12/22 14:39:24;;;;;;;;;;;;;;;7.40;56.99;99838.13;5049715;28;19927;-95
2022/12/22 14:41:55;;;;;;;;;;;;;;;7.36;57.77;99839.88;5043577;28;19921;-94
2022/12/22 14:44:23;;;;;;;;;;;;;;;7.25;57.33;99833.75;5047362;28;20415;-95
2022/12/22 14:47:04;;;;;;;;;;;;;;;7.14;57.76;99837.22;5052203;28;20019;-96
2022/12/22 14:49:30;;;;;;;;;;;;;;;7.08;58.53;99836.38;5049734;28;19929;-96
2022/12/22 14:52:03;;;;;;;;;;;;;;;7.07;58.43;99837.22;5051659;28;20012;-96
2022/12/22 14:54:28;;;;;;;;;;;;;;;6.91;59.23;99841.56;5049541;28;19921;-95
2022/12/22 14:56:58;;;;;;;;;;;;;;;6.98;59.28;99838.97;5035911;28;19932;-96
2022/12/22 14:59:26;;;;;;;;;;;;;;;6.80;59.60;99842.41;5041962;28;19987;-95
2022/12/22 15:02:25;;;;;;;;;;;;;;;6.75;59.84;99840.63;5049740;28;19981;-96
2022/12/22 15:05:19;;;;;;;;;;;;;;;6.75;60.92;99844.16;5017616;28;19917;-96
2022/12/22 15:08:23;;;;;;;;;;;;;;;6.59;61.77;99843.22;5028455;28;19917;-96
2022/12/22 15:10:52;;;;;;;;;;;;;;;6.45;62.02;99837.91;5051244;28;19924;-93
2022/12/22 15:13:20;;;;;;;;;;;;;;;6.45;62.64;99839.66;5062563;28;19921;-95
2022/12/22 15:15:45;;;;;;;;;;;;;;;6.40;62.72;99850.13;5048039;28;19920;-96
2022/12/22 15:18:12;;;;;;;;;;;;;;;6.29;63.08;99846.59;5047474;28;19928;-94
2022/12/22 15:20:38;;;;;;;;;;;;;;;6.19;64.03;99850.03;5041863;28;20011;-94
2022/12/22 15:23:08;;;;;;;;;;;;;;;6.16;64.01;99845.63;5048963;28;20066;-95
2022/12/22 15:25:33;;;;;;;;;;;;;;;6.16;63.94;99850.00;5048926;28;19924;-95
2022/12/22 15:27:59;;;;;;;;;;;;;;;6.15;64.18;99843.91;5048315;28;20417;-94
2022/12/22 15:30:25;;;;;;;;;;;;;;;6.05;64.34;99839.47;5048767;28;19917;-94
2022/12/22 15:32:50;;;;;;;;;;;;;;;5.99;64.96;99842.94;5046720;28;20008;-94
2022/12/22 15:35:17;;;;;;;;;;;;;;;5.90;64.93;99848.06;5037737;28;20004;-95
2022/12/22 15:37:43;;;;;;;;;;;;;;;5.91;65.00;99850.69;5051070;28;19928;-95
2022/12/22 15:40:13;;;;;;;;;;;;;;;6.00;64.35;99851.69;5049383;28;19928;-91
2022/12/22 15:42:39;;;;;;;;;;;;;;;5.79;64.67;99849.75;5051204;28;20007;-95
2022/12/22 15:45:05;;;;;;;;;;;;;;;5.70;64.46;99848.84;5067022;28;19920;-93
2022/12/22 15:47:30;;;;;;;;;;;;;;;5.56;64.37;99847.84;5060799;28;20306;-90
2022/12/22 15:49:55;;;;;;;;;;;;;;;5.45;64.65;99862.56;5051740;28;19912;-94
2022/12/22 15:52:21;;;;;;;;;;;;;;;5.26;64.55;99853.69;5048362;28;19983;-93
2022/12/22 15:54:47;;;;;;;;;;;;;;;5.16;64.67;99858.84;5039327;28;19925;-93
2022/12/22 15:57:13;;;;;;;;;;;;;;;4.99;65.02;99848.22;5046721;28;20369;-95
2022/12/22 15:59:38;;;;;;;;;;;;;;;4.82;65.58;99853.28;5033559;28;19936;-94
2022/12/22 16:02:09;;;;;;;;;;;;;;;4.83;65.67;99859.38;5040681;28;19932;-92
2022/12/22 16:04:34;;;;;;;;;;;;;;;4.66;65.85;99865.31;5041586;28;19929;-87
2022/12/22 16:07:00;;;;;;;;;;;;;;;4.60;66.02;99860.00;5046202;28;19970;-90
2022/12/22 16:09:31;;;;;;;;;;;;;;;4.51;66.00;99870.34;5050107;28;19912;-93
2022/12/22 16:11:58;;;;;;;;;;;;;;;4.43;66.13;99869.34;5062084;28;19925;-95
2022/12/22 16:14:23;;;;;;;;;;;;;;;4.37;66.32;99862.34;5047914;28;20387;-93
2022/12/22 16:16:51;;;;;;;;;;;;;;;4.34;66.36;99867.53;5051374;28;19917;-96
2022/12/22 16:19:17;;;;;;;;;;;;;;;4.25;66.21;99868.25;5037187;28;20019;-92
2022/12/22 16:21:46;;;;;;;;;;;;;;;4.15;66.93;99868.97;5050564;28;19925;-93
2022/12/22 16:24:28;;;;;;;;;;;;;;;4.12;66.85;99867.22;5040482;28;19960;-94
2022/12/22 16:26:55;;;;;;;;;;;;;;;4.07;67.08;99865.41;5036192;28;20486;-94
2022/12/22 16:29:21;;;;;;;;;;;;;;;3.99;67.17;99867.03;5057216;28;19940;-95
2022/12/22 16:31:48;;;;;;;;;;;;;;;3.98;67.06;99871.34;5038319;28;20672;-91
2022/12/22 16:34:13;;;;;;;;;;;;;;;3.92;67.36;99871.28;5057452;28;19928;-93
2022/12/22 16:36:39;;;;;;;;;;;;;;;3.85;67.45;99878.13;5038766;28;19928;-92
2022/12/22 16:39:04;;;;;;;;;;;;;;;3.80;67.79;99876.31;5043679;28;20422;-94
2022/12/22 16:41:29;;;;;;;;;;;;;;;3.75;67.68;99876.22;5060024;28;20736;-94